Time;durP1;ratioP1;P1;durP2;ratioP2;P2;SDS_P1;SDS_P2;PMS_P1;PMS_P2;Temp;Humidity;BMP_temperature;BMP_pressure;BME280_temperature;BME280_humidity;BME280_pressure;Samples;Min_cycle;Max_cycle;Signal;HPM_P1;HPM_P2
2022/06/29 00:01:23;;;;;;;5.90;4.65;;;;;;;;;;5018937;28;20107;-74
2022/06/29 00:03:51;;;;;;;5.38;4.13;;;;;;;;;;5035396;28;20094;-74
2022/06/29 00:06:18;;;;;;;5.03;4.25;;;;;;;;;;5053019;28;20025;-74
2022/06/29 00:08:45;;;;;;;6.15;4.57;;;;;;;;;;5018961;28;20032;-75
2022/06/29 00:11:12;;;;;;;6.25;4.53;;;;;;;;;;5052889;28;20021;-74
2022/06/29 00:13:38;;;;;;;5.05;4.25;;;;;;;;;;5035075;28;20378;-73
2022/06/29 00:16:04;;;;;;;5.70;4.88;;;;;;;;;;5052990;28;20082;-75
2022/06/29 00:18:30;;;;;;;5.88;4.55;;;;;;;;;;5052947;28;20469;-75
2022/06/29 00:20:56;;;;;;;6.28;4.10;;;;;;;;;;5035110;28;20021;-74
2022/06/29 00:23:21;;;;;;;5.30;4.00;;;;;;;;;;5035108;28;20082;-75
2022/06/29 00:25:48;;;;;;;5.88;4.15;;;;;;;;;;5034956;28;20100;-74
2022/06/29 00:28:14;;;;;;;5.88;4.63;;;;;;;;;;5052971;28;20095;-74
2022/06/29 00:30:40;;;;;;;5.88;4.57;;;;;;;;;;5035112;28;20024;-74
2022/06/29 00:33:05;;;;;;;5.85;4.32;;;;;;;;;;5052480;28;20045;-74
2022/06/29 00:35:31;;;;;;;6.45;4.43;;;;;;;;;;5034816;28;20044;-74
2022/06/29 00:37:57;;;;;;;6.70;3.95;;;;;;;;;;5034904;28;20017;-74
2022/06/29 00:40:23;;;;;;;4.93;3.83;;;;;;;;;;5052795;28;20024;-75
2022/06/29 00:42:48;;;;;;;6.60;4.60;;;;;;;;;;5055407;28;20458;-75
2022/06/29 00:45:14;;;;;;;12.05;5.68;;;;;;;;;;5038722;28;20032;-74
2022/06/29 00:47:40;;;;;;;5.50;4.40;;;;;;;;;;5056262;28;20028;-74
2022/06/29 00:50:06;;;;;;;6.07;4.30;;;;;;;;;;5056414;28;20032;-74
2022/06/29 00:52:43;;;;;;;6.38;4.10;;;;;;;;;;5056639;28;20020;-75
2022/06/29 00:55:16;;;;;;;4.30;3.90;;;;;;;;;;5038456;28;20020;-75
2022/06/29 00:57:42;;;;;;;7.60;4.18;;;;;;;;;;5038634;28;20049;-75
2022/06/29 01:00:10;;;;;;;3.88;3.55;;;;;;;;;;5021836;28;20071;-73
2022/06/29 01:02:44;;;;;;;4.82;4.30;;;;;;;;;;5038842;28;20405;-75
2022/06/29 01:05:10;;;;;;;5.03;3.60;;;;;;;;;;5056382;28;20021;-74
2022/06/29 01:07:36;;;;;;;6.90;3.40;;;;;;;;;;5054350;28;20477;-74
2022/06/29 01:10:03;;;;;;;5.20;3.40;;;;;;;;;;5055898;28;20028;-73
2022/06/29 01:12:31;;;;;;;4.63;3.38;;;;;;;;;;5055960;28;20466;-74
2022/06/29 01:14:57;;;;;;;3.85;3.22;;;;;;;;;;5037808;28;20024;-75
2022/06/29 01:17:24;;;;;;;4.07;3.42;;;;;;;;;;5038027;28;20029;-75
2022/06/29 01:19:50;;;;;;;4.45;3.22;;;;;;;;;;5038336;28;20029;-75
2022/06/29 01:22:20;;;;;;;4.22;3.45;;;;;;;;;;5055932;28;20017;-73
2022/06/29 01:24:47;;;;;;;5.35;4.07;;;;;;;;;;5055803;28;20028;-73
2022/06/29 01:27:14;;;;;;;3.85;3.15;;;;;;;;;;5037866;28;20028;-74
2022/06/29 01:29:41;;;;;;;3.45;3.15;;;;;;;;;;5021466;28;20025;-75
2022/06/29 01:32:08;;;;;;;2.92;2.55;;;;;;;;;;5021207;28;20051;-74
2022/06/29 01:34:34;;;;;;;4.50;3.25;;;;;;;;;;5055541;28;20020;-74
2022/06/29 01:37:09;;;;;;;3.83;3.30;;;;;;;;;;5055831;28;20104;-75
2022/06/29 01:39:36;;;;;;;4.38;3.60;;;;;;;;;;5055427;28;20013;-74
2022/06/29 01:42:01;;;;;;;3.85;3.45;;;;;;;;;;5037631;28;20013;-74
2022/06/29 01:44:27;;;;;;;3.10;2.80;;;;;;;;;;5055608;28;20417;-74
2022/06/29 01:46:54;;;;;;;3.72;3.17;;;;;;;;;;5037527;28;20027;-75
2022/06/29 01:49:19;;;;;;;4.28;3.20;;;;;;;;;;5055401;28;20055;-74
2022/06/29 01:51:44;;;;;;;4.40;3.75;;;;;;;;;;5054023;28;20025;-74
2022/06/29 01:54:10;;;;;;;3.80;3.28;;;;;;;;;;5036443;28;20047;-74
2022/06/29 01:56:35;;;;;;;3.28;2.97;;;;;;;;;;5055272;28;20017;-74
2022/06/29 01:59:02;;;;;;;5.25;3.30;;;;;;;;;;5055161;28;20092;-73
2022/06/29 02:01:29;;;;;;;4.00;2.95;;;;;;;;;;5037554;28;20036;-74
2022/06/29 02:03:54;;;;;;;3.78;3.35;;;;;;;;;;5055190;28;20025;-75
2022/06/29 02:06:20;;;;;;;4.35;3.40;;;;;;;;;;5054996;28;20033;-74
2022/06/29 02:08:47;;;;;;;4.30;3.30;;;;;;;;;;5055430;28;20370;-73
2022/06/29 02:11:13;;;;;;;4.75;3.75;;;;;;;;;;5020355;28;20025;-74
2022/06/29 02:13:38;;;;;;;5.03;4.07;;;;;;;;;;5054918;28;20021;-74
2022/06/29 02:16:04;;;;;;;4.78;3.97;;;;;;;;;;5053471;28;20017;-74
2022/06/29 02:18:31;;;;;;;4.80;4.20;;;;;;;;;;5036866;28;20386;-74
2022/06/29 02:20:59;;;;;;;5.50;4.25;;;;;;;;;;5054796;28;20024;-74
2022/06/29 02:23:24;;;;;;;5.95;3.85;;;;;;;;;;5054632;28;20039;-74
2022/06/29 02:25:49;;;;;;;5.70;3.85;;;;;;;;;;5036743;28;20013;-74
2022/06/29 02:28:15;;;;;;;5.72;3.75;;;;;;;;;;5054774;28;20017;-74
2022/06/29 02:36:11;;;;;;;5.72;4.35;;;;;;;;;;5054834;28;20497;-74
2022/06/29 02:38:38;;;;;;;4.95;4.15;;;;;;;;;;5036576;28;20021;-74
2022/06/29 02:41:04;;;;;;;5.88;4.50;;;;;;;;;;5036479;28;20031;-74
2022/06/29 02:43:30;;;;;;;5.72;3.80;;;;;;;;;;5054620;28;20025;-74
2022/06/29 02:45:55;;;;;;;6.60;4.47;;;;;;;;;;5036592;28;20032;-74
2022/06/29 02:48:22;;;;;;;5.55;4.68;;;;;;;;;;5036324;28;20021;-74
2022/06/29 02:50:48;;;;;;;6.07;4.32;;;;;;;;;;5054186;28;20025;-74
2022/06/29 02:53:14;;;;;;;6.28;4.65;;;;;;;;;;5036314;28;20112;-74
2022/06/29 02:55:40;;;;;;;6.03;5.07;;;;;;;;;;5054138;28;20025;-74
2022/06/29 02:58:07;;;;;;;6.68;4.90;;;;;;;;;;5036319;28;20021;-75
2022/06/29 03:00:33;;;;;;;6.45;4.93;;;;;;;;;;5054100;28;20367;-74
2022/06/29 03:03:01;;;;;;;7.47;4.93;;;;;;;;;;5053979;28;20039;-73
2022/06/29 03:05:27;;;;;;;7.55;4.90;;;;;;;;;;5053829;28;20029;-74
2022/06/29 03:07:53;;;;;;;6.90;5.22;;;;;;;;;;5054129;28;20029;-73
2022/06/29 03:10:20;;;;;;;7.65;5.57;;;;;;;;;;5054019;28;20052;-75
2022/06/29 03:12:45;;;;;;;5.85;4.78;;;;;;;;;;5053919;28;20063;-74
2022/06/29 03:15:11;;;;;;;8.27;5.00;;;;;;;;;;5053682;28;20378;-74
2022/06/29 03:17:37;;;;;;;6.47;5.78;;;;;;;;;;5053606;28;20454;-74
2022/06/29 03:20:05;;;;;;;6.65;5.18;;;;;;;;;;5054024;28;20028;-74
2022/06/29 03:22:33;;;;;;;7.53;5.93;;;;;;;;;;5053734;28;20020;-74
2022/06/29 03:24:59;;;;;;;6.65;5.78;;;;;;;;;;5035818;28;20422;-74
2022/06/29 03:27:25;;;;;;;7.43;5.50;;;;;;;;;;5035714;28;20025;-75
2022/06/29 03:29:51;;;;;;;7.50;6.03;;;;;;;;;;5053799;28;20078;-74
2022/06/29 03:32:16;;;;;;;8.07;5.50;;;;;;;;;;5053305;28;20536;-74
2022/06/29 03:34:42;;;;;;;7.28;5.80;;;;;;;;;;5053687;28;20023;-75
2022/06/29 03:37:09;;;;;;;6.72;5.38;;;;;;;;;;5053435;28;20048;-74
2022/06/29 03:39:35;;;;;;;8.52;6.00;;;;;;;;;;5053590;28;20056;-74
2022/06/29 03:42:02;;;;;;;8.30;5.43;;;;;;;;;;5053578;28;20020;-74
2022/06/29 03:44:28;;;;;;;6.90;5.75;;;;;;;;;;5053371;28;20017;-75
2022/06/29 03:46:54;;;;;;;6.20;5.43;;;;;;;;;;5035362;28;20036;-74
2022/06/29 03:49:20;;;;;;;7.70;6.60;;;;;;;;;;5053399;28;20052;-74
2022/06/29 03:51:46;;;;;;;7.47;5.72;;;;;;;;;;5035373;28;20060;-73
2022/06/29 03:54:12;;;;;;;9.52;6.28;;;;;;;;;;5053307;28;20485;-74
2022/06/29 03:56:37;;;;;;;9.88;6.40;;;;;;;;;;5053442;28;20098;-74
2022/06/29 03:59:04;;;;;;;7.73;6.00;;;;;;;;;;5053545;28;20443;-74
2022/06/29 04:01:30;;;;;;;9.38;7.18;;;;;;;;;;5053136;28;20275;-74
2022/06/29 04:03:56;;;;;;;8.43;5.70;;;;;;;;;;5035322;28;20071;-74
2022/06/29 04:06:23;;;;;;;8.07;6.28;;;;;;;;;;5053349;28;20025;-73
2022/06/29 04:08:49;;;;;;;10.15;5.93;;;;;;;;;;5051854;28;20447;-73
2022/06/29 04:13:59;;;;;;;8.20;6.60;;;;;;;;;;5053159;28;20088;-74
2022/06/29 04:16:24;;;;;;;13.40;6.75;;;;;;;;;;5035546;28;20492;-75
2022/06/29 04:18:49;;;;;;;12.52;6.68;;;;;;;;;;5039079;28;20021;-74
2022/06/29 04:21:15;;;;;;;10.20;6.63;;;;;;;;;;5057080;28;20028;-74
2022/06/29 04:23:41;;;;;;;10.30;6.03;;;;;;;;;;5057075;28;20263;-74
2022/06/29 04:26:07;;;;;;;11.93;6.70;;;;;;;;;;5039038;28;20021;-76
2022/06/29 04:28:34;;;;;;;10.13;7.45;;;;;;;;;;5056472;28;20132;-74
2022/06/29 04:31:01;;;;;;;9.55;6.00;;;;;;;;;;5041294;28;20035;-74
2022/06/29 04:33:28;;;;;;;10.20;7.03;;;;;;;;;;5056424;28;20041;-73
2022/06/29 04:35:54;;;;;;;11.25;6.65;;;;;;;;;;5039151;28;20075;-74
2022/06/29 04:38:19;;;;;;;9.30;6.75;;;;;;;;;;5049329;28;20078;-74
2022/06/29 04:40:46;;;;;;;11.73;7.07;;;;;;;;;;5056652;28;20024;-74
2022/06/29 04:43:12;;;;;;;9.63;7.13;;;;;;;;;;5055498;28;20060;-74
2022/06/29 04:48:22;;;;;;;12.32;7.82;;;;;;;;;;5056574;28;20321;-73
2022/06/29 04:50:48;;;;;;;12.30;6.90;;;;;;;;;;5056574;28;20138;-74
2022/06/29 04:53:14;;;;;;;10.80;6.80;;;;;;;;;;5056373;28;20100;-74
2022/06/29 04:55:39;;;;;;;9.77;7.13;;;;;;;;;;5056181;28;20060;-74
2022/06/29 04:58:06;;;;;;;11.13;7.83;;;;;;;;;;5056293;28;20442;-72
2022/06/29 05:00:32;;;;;;;10.52;6.80;;;;;;;;;;5056489;28;20267;-73
2022/06/29 05:02:57;;;;;;;9.95;6.88;;;;;;;;;;5054886;28;20062;-73
2022/06/29 05:05:22;;;;;;;7.93;6.53;;;;;;;;;;5056041;28;20116;-73
2022/06/29 05:07:48;;;;;;;8.60;7.20;;;;;;;;;;5055791;28;20278;-73
2022/06/29 05:10:15;;;;;;;10.70;6.88;;;;;;;;;;5055883;28;20271;-73
2022/06/29 05:12:41;;;;;;;7.63;6.40;;;;;;;;;;5056213;28;20029;-74
2022/06/29 05:15:07;;;;;;;8.65;6.35;;;;;;;;;;5056097;28;20389;-72
2022/06/29 05:17:36;;;;;;;10.73;7.18;;;;;;;;;;5037932;28;20051;-73
2022/06/29 05:20:05;;;;;;;8.30;6.03;;;;;;;;;;5055775;28;20095;-73
2022/06/29 05:22:30;;;;;;;13.07;7.47;;;;;;;;;;5037653;28;20027;-74
2022/06/29 05:24:56;;;;;;;9.53;6.80;;;;;;;;;;5050201;28;20033;-74
2022/06/29 05:27:23;;;;;;;7.63;6.35;;;;;;;;;;5055440;28;20278;-73
2022/06/29 05:29:48;;;;;;;8.13;6.10;;;;;;;;;;5054235;28;20107;-75
2022/06/29 05:32:14;;;;;;;8.23;6.90;;;;;;;;;;5055330;28;20081;-74
2022/06/29 05:34:41;;;;;;;9.88;7.15;;;;;;;;;;5037249;28;20371;-74
2022/06/29 05:37:07;;;;;;;9.15;6.53;;;;;;;;;;5037418;28;20139;-74
2022/06/29 05:39:32;;;;;;;10.65;6.68;;;;;;;;;;5055076;28;20096;-74
2022/06/29 05:41:58;;;;;;;8.87;7.73;;;;;;;;;;5053889;28;20044;-74
2022/06/29 05:44:23;;;;;;;8.43;7.32;;;;;;;;;;5053196;28;20633;-76
2022/06/29 05:46:48;;;;;;;9.13;7.05;;;;;;;;;;5051791;28;20024;-76
2022/06/29 05:49:13;;;;;;;7.73;6.67;;;;;;;;;;5052464;28;20508;-74
2022/06/29 05:51:39;;;;;;;11.23;7.50;;;;;;;;;;5036680;28;20272;-75
2022/06/29 05:54:04;;;;;;;9.18;7.00;;;;;;;;;;5036496;28;20777;-75
2022/06/29 05:56:29;;;;;;;11.52;7.85;;;;;;;;;;5053470;28;20109;-75
2022/06/29 05:58:54;;;;;;;17.47;8.43;;;;;;;;;;5037233;28;20013;-75
2022/06/29 06:01:20;;;;;;;14.13;8.10;;;;;;;;;;5037531;28;20417;-76
2022/06/29 06:03:45;;;;;;;9.95;5.70;;;;;;;;;;5020414;28;20453;-75
2022/06/29 06:06:12;;;;;;;8.45;6.47;;;;;;;;;;5055083;28;20017;-74
2022/06/29 06:08:37;;;;;;;8.52;6.50;;;;;;;;;;5054753;28;20013;-75
2022/06/29 06:11:02;;;;;;;7.47;6.18;;;;;;;;;;5054808;28;20110;-75
2022/06/29 06:13:28;;;;;;;8.52;5.93;;;;;;;;;;5036988;28;20017;-75
2022/06/29 06:15:53;;;;;;;10.25;7.18;;;;;;;;;;5053396;28;20052;-76
2022/06/29 06:18:18;;;;;;;10.27;6.35;;;;;;;;;;5036754;28;20422;-75
2022/06/29 06:20:44;;;;;;;7.67;6.87;;;;;;;;;;5054769;28;20473;-76
2022/06/29 06:23:09;;;;;;;6.80;6.10;;;;;;;;;;5036683;28;20268;-75
2022/06/29 06:25:34;;;;;;;7.72;6.93;;;;;;;;;;5054552;28;20476;-75
2022/06/29 06:28:05;;;;;;;8.30;6.83;;;;;;;;;;5054618;28;20027;-76
2022/06/29 06:30:30;;;;;;;9.50;6.95;;;;;;;;;;5036628;28;20275;-74
2022/06/29 06:32:56;;;;;;;9.75;7.10;;;;;;;;;;5021525;28;20133;-74
2022/06/29 06:35:21;;;;;;;10.43;6.93;;;;;;;;;;5034378;28;20030;-77
2022/06/29 06:37:47;;;;;;;7.60;6.27;;;;;;;;;;5034279;28;20018;-76
2022/06/29 06:42:56;;;;;;;8.35;7.53;;;;;;;;;;5034627;28;20033;-76
2022/06/29 06:45:21;;;;;;;9.13;7.33;;;;;;;;;;5000066;28;20021;-76
2022/06/29 06:47:47;;;;;;;10.18;7.22;;;;;;;;;;5016351;28;20379;-75
2022/06/29 06:50:12;;;;;;;8.48;7.03;;;;;;;;;;5016343;28;20112;-77
2022/06/29 06:52:37;;;;;;;10.27;7.67;;;;;;;;;;5016343;28;20112;-76
2022/06/29 06:55:03;;;;;;;9.40;7.57;;;;;;;;;;5016293;28;20287;-76
2022/06/29 06:57:28;;;;;;;11.93;8.18;;;;;;;;;;5016307;28;20359;-76
2022/06/29 06:59:53;;;;;;;11.90;7.53;;;;;;;;;;5034356;28;20025;-76
2022/06/29 07:02:21;;;;;;;11.43;7.97;;;;;;;;;;5034030;28;20649;-76
2022/06/29 07:04:47;;;;;;;10.38;8.05;;;;;;;;;;5015984;28;20287;-78
2022/06/29 07:07:12;;;;;;;8.98;7.13;;;;;;;;;;5016132;28;20021;-75
2022/06/29 07:09:38;;;;;;;11.80;7.53;;;;;;;;;;5034025;28;20152;-76
2022/06/29 07:12:03;;;;;;;9.47;7.40;;;;;;;;;;5016191;28;20383;-75
2022/06/29 07:14:29;;;;;;;13.30;7.15;;;;;;;;;;5016249;28;20284;-75
2022/06/29 07:16:54;;;;;;;9.43;7.33;;;;;;;;;;5016071;28;20036;-77
2022/06/29 07:19:19;;;;;;;9.57;7.30;;;;;;;;;;5033555;28;20272;-76
2022/06/29 07:21:46;;;;;;;8.25;6.32;;;;;;;;;;5033648;28;20750;-75
2022/06/29 07:24:11;;;;;;;10.30;8.10;;;;;;;;;;5015869;28;20024;-75
2022/06/29 07:26:36;;;;;;;9.40;7.57;;;;;;;;;;5033209;28;20018;-75
2022/06/29 07:29:02;;;;;;;7.97;5.83;;;;;;;;;;5033469;28;20032;-76
2022/06/29 07:31:27;;;;;;;6.80;6.10;;;;;;;;;;5018483;28;20387;-77
2022/06/29 07:33:52;;;;;;;8.20;6.50;;;;;;;;;;5035223;28;20024;-74
2022/06/29 07:36:18;;;;;;;7.13;6.13;;;;;;;;;;5035370;28;20315;-75
2022/06/29 07:38:43;;;;;;;6.18;5.60;;;;;;;;;;5051990;28;20738;-76
2022/06/29 07:41:08;;;;;;;7.20;6.20;;;;;;;;;;5035321;28;20526;-76
2022/06/29 07:43:34;;;;;;;9.80;6.70;;;;;;;;;;5052993;28;20025;-76
2022/06/29 07:45:59;;;;;;;8.73;6.25;;;;;;;;;;5053110;28;20027;-76
2022/06/29 07:48:25;;;;;;;13.27;7.93;;;;;;;;;;5035162;28;20469;-75
2022/06/29 07:50:51;;;;;;;8.95;6.60;;;;;;;;;;5034788;28;20120;-76
2022/06/29 07:53:16;;;;;;;6.90;5.60;;;;;;;;;;5035000;28;20037;-76
2022/06/29 07:55:44;;;;;;;7.97;7.17;;;;;;;;;;5035161;28;20078;-76
2022/06/29 07:58:09;;;;;;;8.23;6.30;;;;;;;;;;5052978;28;20838;-77
2022/06/29 08:00:36;;;;;;;8.63;6.97;;;;;;;;;;5053048;28;20021;-77
2022/06/29 08:03:01;;;;;;;6.93;6.22;;;;;;;;;;5051614;28;20024;-77
2022/06/29 08:05:26;;;;;;;7.30;6.13;;;;;;;;;;5052810;28;20385;-76
2022/06/29 08:07:52;;;;;;;6.67;5.97;;;;;;;;;;5052981;28;20533;-76
2022/06/29 08:10:19;;;;;;;13.37;7.17;;;;;;;;;;5035439;28;20024;-76
2022/06/29 08:12:44;;;;;;;8.13;6.35;;;;;;;;;;5034981;28;20310;-76
2022/06/29 08:15:09;;;;;;;9.38;6.85;;;;;;;;;;5034928;28;20055;-76
2022/06/29 08:17:35;;;;;;;11.50;7.32;;;;;;;;;;5052745;28;20024;-77
2022/06/29 08:20:00;;;;;;;10.27;7.97;;;;;;;;;;5052878;28;20020;-76
2022/06/29 08:22:27;;;;;;;10.63;7.25;;;;;;;;;;5035226;28;20428;-75
2022/06/29 08:24:53;;;;;;;9.60;7.25;;;;;;;;;;5043583;28;20025;-76
2022/06/29 08:27:22;;;;;;;10.38;7.80;;;;;;;;;;5051708;28;20032;-76
2022/06/29 08:29:48;;;;;;;8.93;7.38;;;;;;;;;;5032914;28;20071;-75
2022/06/29 08:32:13;;;;;;;9.70;8.52;;;;;;;;;;5032571;28;20061;-76
2022/06/29 08:34:39;;;;;;;11.43;8.63;;;;;;;;;;5032987;28;20029;-73
2022/06/29 08:37:08;;;;;;;11.48;7.90;;;;;;;;;;5015437;28;20204;-73
2022/06/29 08:39:35;;;;;;;10.73;8.27;;;;;;;;;;5049835;28;20102;-74
2022/06/29 08:42:04;;;;;;;10.32;8.35;;;;;;;;;;5052926;28;20044;-76
2022/06/29 08:44:30;;;;;;;16.98;9.10;;;;;;;;;;5052882;28;20184;-74
2022/06/29 08:46:58;;;;;;;13.25;9.63;;;;;;;;;;5034830;28;20029;-76
2022/06/29 08:49:25;;;;;;;14.20;9.32;;;;;;;;;;5052902;28;20190;-77
2022/06/29 08:51:53;;;;;;;11.65;8.70;;;;;;;;;;5052483;28;20025;-75
2022/06/29 08:54:20;;;;;;;16.63;9.40;;;;;;;;;;5034864;28;20033;-75
2022/06/29 08:56:54;;;;;;;9.70;8.35;;;;;;;;;;5034864;28;20033;-75
2022/06/29 08:59:22;;;;;;;11.25;8.93;;;;;;;;;;5052517;28;20017;-75
2022/06/29 09:01:57;;;;;;;11.60;9.27;;;;;;;;;;5018472;28;20024;-73
2022/06/29 09:04:22;;;;;;;11.75;8.27;;;;;;;;;;5055493;28;20029;-75
2022/06/29 09:06:52;;;;;;;11.23;8.00;;;;;;;;;;5038170;28;20025;-75
2022/06/29 09:09:19;;;;;;;9.93;7.93;;;;;;;;;;5055600;28;20301;-75
2022/06/29 09:11:44;;;;;;;10.38;8.63;;;;;;;;;;5055631;28;20462;-74
2022/06/29 09:14:12;;;;;;;15.27;8.80;;;;;;;;;;5055653;28;20028;-75
2022/06/29 09:16:56;;;;;;;10.65;8.60;;;;;;;;;;5044103;28;20271;-76
2022/06/29 09:19:31;;;;;;;13.48;9.95;;;;;;;;;;5071611;28;20112;-77
2022/06/29 09:22:05;;;;;;;17.77;9.32;;;;;;;;;;5051392;28;20017;-76
2022/06/29 09:24:34;;;;;;;12.43;9.68;;;;;;;;;;5055684;28;20450;-76
2022/06/29 09:27:09;;;;;;;16.77;9.77;;;;;;;;;;5055739;28;20029;-76
2022/06/29 09:29:39;;;;;;;11.52;9.10;;;;;;;;;;5037541;28;20070;-77
2022/06/29 09:32:10;;;;;;;10.73;8.88;;;;;;;;;;5055371;28;20053;-77
2022/06/29 09:34:39;;;;;;;10.32;7.93;;;;;;;;;;5037490;28;20037;-77
2022/06/29 09:37:08;;;;;;;12.27;8.48;;;;;;;;;;5055078;28;20032;-76
2022/06/29 09:39:38;;;;;;;14.88;9.73;;;;;;;;;;5037193;28;20470;-77
2022/06/29 09:42:05;;;;;;;13.50;9.45;;;;;;;;;;5055226;28;20025;-77
2022/06/29 09:44:32;;;;;;;9.07;7.38;;;;;;;;;;5055256;28;20029;-76
2022/06/29 09:47:21;;;;;;;15.00;10.18;;;;;;;;;;5037312;28;20120;-77
2022/06/29 09:49:47;;;;;;;11.70;9.18;;;;;;;;;;5036962;28;20440;-74
2022/06/29 09:52:14;;;;;;;10.52;8.15;;;;;;;;;;5055510;28;20458;-76
2022/06/29 09:54:45;;;;;;;10.35;8.23;;;;;;;;;;5020827;28;20036;-76
2022/06/29 09:57:19;;;;;;;8.40;7.33;;;;;;;;;;5037141;28;20024;-76
2022/06/29 10:02:39;;;;;;;8.90;7.43;;;;;;;;;;5025956;28;20039;-77
2022/06/29 10:05:06;;;;;;;10.60;6.80;;;;;;;;;;5049841;28;20036;-76
2022/06/29 10:07:40;;;;;;;8.68;7.68;;;;;;;;;;5035663;28;20017;-77
2022/06/29 10:10:08;;;;;;;9.30;6.95;;;;;;;;;;5033572;28;20022;-77
2022/06/29 10:15:20;;;;;;;8.25;7.07;;;;;;;;;;5033948;28;20044;-74
2022/06/29 10:17:52;;;;;;;7.43;6.67;;;;;;;;;;5034969;28;20022;-74
2022/06/29 10:20:17;;;;;;;8.75;7.38;;;;;;;;;;5034722;28;20268;-75
2022/06/29 10:22:43;;;;;;;9.18;7.22;;;;;;;;;;5035057;28;20430;-75
2022/06/29 10:25:10;;;;;;;9.45;7.18;;;;;;;;;;5035316;28;20029;-75
2022/06/29 10:27:37;;;;;;;7.68;6.53;;;;;;;;;;5017100;28;20126;-75
2022/06/29 10:30:22;;;;;;;10.80;6.70;;;;;;;;;;5033394;28;20082;-75
2022/06/29 10:32:56;;;;;;;8.93;7.70;;;;;;;;;;5060755;28;20519;-74
2022/06/29 10:35:24;;;;;;;10.00;7.85;;;;;;;;;;5074311;28;20032;-75
2022/06/29 10:37:52;;;;;;;12.27;7.95;;;;;;;;;;5040074;28;20036;-76
2022/06/29 10:40:19;;;;;;;9.65;8.52;;;;;;;;;;5056484;28;20032;-74
2022/06/29 10:45:37;;;;;;;12.13;8.82;;;;;;;;;;5066221;28;20038;-76
2022/06/29 10:48:07;;;;;;;10.90;8.38;;;;;;;;;;5062599;28;20025;-75
2022/06/29 10:50:52;;;;;;;9.73;7.60;;;;;;;;;;5055809;28;20036;-75
2022/06/29 10:53:19;;;;;;;7.68;6.88;;;;;;;;;;5069979;28;20032;-76
2022/06/29 10:55:47;;;;;;;9.95;8.45;;;;;;;;;;5074164;28;20020;-75
2022/06/29 10:58:14;;;;;;;12.15;9.38;;;;;;;;;;5039350;28;20025;-77
2022/06/29 11:00:40;;;;;;;11.32;7.90;;;;;;;;;;5055360;28;20388;-78
2022/06/29 11:03:15;;;;;;;10.70;7.82;;;;;;;;;;5072870;28;20119;-75
2022/06/29 11:17:01;;;;;;;10.50;8.00;;;;;;;;;;5073897;28;20094;-77
2022/06/29 11:19:32;;;;;;;9.18;8.18;;;;;;;;;;5071396;28;20103;-77
2022/06/29 11:22:10;;;;;;;9.63;8.43;;;;;;;;;;5056251;28;20104;-76
2022/06/29 11:24:54;;;;;;;10.77;9.02;;;;;;;;;;5073373;28;20025;-77
2022/06/29 11:27:48;;;;;;;9.32;8.32;;;;;;;;;;5073368;28;20029;-77
2022/06/29 11:30:24;;;;;;;9.52;8.52;;;;;;;;;;5055740;28;20032;-77
2022/06/29 11:32:50;;;;;;;9.80;8.80;;;;;;;;;;5041300;28;20053;-77
2022/06/29 11:35:39;;;;;;;9.55;8.35;;;;;;;;;;5053467;28;20040;-75
2022/06/29 11:38:14;;;;;;;9.20;8.30;;;;;;;;;;5034916;28;20063;-79
2022/06/29 11:40:51;;;;;;;8.45;7.53;;;;;;;;;;5053724;28;20017;-77
2022/06/29 11:43:18;;;;;;;13.75;9.80;;;;;;;;;;5051897;28;20108;-77
2022/06/29 11:45:47;;;;;;;10.10;8.13;;;;;;;;;;5053242;28;20458;-75
2022/06/29 11:49:33;;;;;;;11.70;8.20;;;;;;;;;;5053035;28;20414;-75
2022/06/29 11:51:27;;;;;;;9.15;8.25;;;;;;;;;;5053023;28;20486;-76
2022/06/29 11:53:54;;;;;;;11.95;8.52;;;;;;;;;;5015414;28;20033;-74
2022/06/29 11:56:27;;;;;;;13.20;8.73;;;;;;;;;;5015492;28;20076;-75
2022/06/29 11:58:55;;;;;;;9.52;7.60;;;;;;;;;;5033352;28;20034;-74
2022/06/29 12:01:25;;;;;;;11.52;8.52;;;;;;;;;;5015759;28;20022;-75
2022/06/29 12:03:53;;;;;;;8.27;7.47;;;;;;;;;;4998767;28;20021;-73
2022/06/29 12:06:21;;;;;;;10.70;9.00;;;;;;;;;;5041664;28;20018;-75
2022/06/29 12:08:48;;;;;;;9.57;8.07;;;;;;;;;;5036224;28;20459;-76
2022/06/29 12:11:14;;;;;;;10.75;8.73;;;;;;;;;;5049565;28;20108;-76
2022/06/29 12:13:40;;;;;;;12.63;7.57;;;;;;;;;;5053184;28;20027;-76
2022/06/29 12:16:06;;;;;;;10.40;7.93;;;;;;;;;;5053256;28;20458;-74
2022/06/29 12:18:33;;;;;;;8.90;7.53;;;;;;;;;;5041208;28;20152;-75
2022/06/29 12:20:58;;;;;;;7.82;7.03;;;;;;;;;;5032489;28;20018;-77
2022/06/29 12:23:23;;;;;;;9.73;8.10;;;;;;;;;;5014123;28;20021;-76
2022/06/29 12:25:49;;;;;;;10.50;7.93;;;;;;;;;;5031698;28;20072;-76
2022/06/29 12:28:14;;;;;;;9.10;7.60;;;;;;;;;;5033367;28;20026;-76
2022/06/29 12:30:39;;;;;;;8.23;7.15;;;;;;;;;;5015226;28;20272;-75
2022/06/29 12:33:09;;;;;;;8.70;7.33;;;;;;;;;;5027617;28;20053;-74
2022/06/29 12:35:34;;;;;;;9.45;7.13;;;;;;;;;;5052146;28;20029;-74
2022/06/29 12:38:00;;;;;;;9.57;7.60;;;;;;;;;;5052985;28;20316;-75
2022/06/29 12:40:26;;;;;;;10.88;7.65;;;;;;;;;;5036583;28;20333;-76
2022/06/29 12:42:52;;;;;;;10.02;7.10;;;;;;;;;;5036580;28;20024;-77
2022/06/29 12:45:17;;;;;;;8.48;7.57;;;;;;;;;;5036576;28;20085;-76
2022/06/29 12:47:43;;;;;;;8.70;7.38;;;;;;;;;;5054506;28;20020;-76
2022/06/29 12:50:09;;;;;;;8.52;7.05;;;;;;;;;;5036879;28;20359;-76
2022/06/29 12:52:34;;;;;;;12.15;7.88;;;;;;;;;;5053787;28;20178;-75
2022/06/29 12:54:59;;;;;;;9.63;7.80;;;;;;;;;;5056156;28;20024;-75
2022/06/29 12:57:24;;;;;;;9.27;8.37;;;;;;;;;;5021824;28;20297;-75
2022/06/29 12:59:50;;;;;;;9.07;7.60;;;;;;;;;;5038260;28;20263;-75
2022/06/29 13:02:19;;;;;;;8.87;7.73;;;;;;;;;;5056254;28;20474;-75
2022/06/29 13:04:45;;;;;;;8.88;7.90;;;;;;;;;;5038364;28;20116;-75
2022/06/29 13:07:10;;;;;;;9.43;8.40;;;;;;;;;;5056040;28;20527;-76
2022/06/29 13:09:36;;;;;;;11.05;7.95;;;;;;;;;;5038096;28;20025;-75
2022/06/29 13:12:01;;;;;;;9.63;8.30;;;;;;;;;;5038207;28;20053;-75
2022/06/29 13:14:27;;;;;;;9.32;7.85;;;;;;;;;;5055967;28;20100;-75
2022/06/29 13:16:52;;;;;;;12.97;7.50;;;;;;;;;;5056166;28;20051;-75
2022/06/29 13:19:17;;;;;;;8.50;7.60;;;;;;;;;;5038039;28;20272;-75
2022/06/29 13:21:42;;;;;;;7.82;6.88;;;;;;;;;;5037829;28;20100;-75
2022/06/29 13:24:08;;;;;;;8.10;7.30;;;;;;;;;;5055624;28;20104;-75
2022/06/29 13:26:33;;;;;;;12.93;7.87;;;;;;;;;;5037697;28;20047;-75
2022/06/29 13:28:59;;;;;;;8.57;7.75;;;;;;;;;;5055590;28;20267;-75
2022/06/29 13:31:25;;;;;;;9.55;8.02;;;;;;;;;;5044953;28;20033;-75
2022/06/29 13:33:51;;;;;;;9.85;8.43;;;;;;;;;;5075725;28;20066;-75
2022/06/29 13:36:17;;;;;;;9.32;7.65;;;;;;;;;;5063668;28;20021;-74
2022/06/29 13:38:44;;;;;;;11.88;8.15;;;;;;;;;;5037466;28;20017;-75
2022/06/29 13:41:09;;;;;;;8.80;8.00;;;;;;;;;;5055366;28;20339;-74
2022/06/29 13:43:36;;;;;;;11.90;7.30;;;;;;;;;;5037548;28;20024;-75
2022/06/29 13:46:01;;;;;;;10.32;7.53;;;;;;;;;;5055590;28;20021;-75
2022/06/29 13:48:28;;;;;;;7.78;7.03;;;;;;;;;;5055213;28;20028;-75
2022/06/29 13:50:54;;;;;;;7.55;6.68;;;;;;;;;;5054282;28;20062;-75
2022/06/29 13:53:20;;;;;;;8.40;6.97;;;;;;;;;;5055580;28;20016;-74
2022/06/29 13:55:46;;;;;;;8.38;7.43;;;;;;;;;;5037395;28;20044;-74
2022/06/29 13:58:12;;;;;;;8.10;7.30;;;;;;;;;;5055413;28;20049;-74
2022/06/29 14:00:37;;;;;;;9.88;7.47;;;;;;;;;;5055189;28;20263;-76
2022/06/29 14:03:04;;;;;;;10.70;8.00;;;;;;;;;;5037335;28;20490;-75
2022/06/29 14:05:32;;;;;;;8.35;7.45;;;;;;;;;;5037116;28;20032;-75
2022/06/29 14:07:57;;;;;;;9.70;7.35;;;;;;;;;;5055199;28;20469;-74
2022/06/29 14:10:24;;;;;;;9.10;7.00;;;;;;;;;;5037240;28;20028;-75
2022/06/29 14:12:49;;;;;;;8.20;7.38;;;;;;;;;;5037134;28;20466;-76
2022/06/29 14:15:14;;;;;;;7.88;7.07;;;;;;;;;;5037114;28;20074;-76
2022/06/29 14:17:41;;;;;;;10.20;6.68;;;;;;;;;;5055029;28;20023;-76
2022/06/29 14:20:07;;;;;;;14.25;12.27;;;;;;;;;;5054807;28;20107;-77
2022/06/29 14:22:37;;;;;;;8.27;6.45;;;;;;;;;;5051416;28;20013;-74
2022/06/29 14:25:07;;;;;;;8.38;7.13;;;;;;;;;;5051956;28;20466;-76
2022/06/29 14:27:33;;;;;;;6.32;5.53;;;;;;;;;;5034255;28;20037;-77
2022/06/29 14:30:00;;;;;;;7.93;6.88;;;;;;;;;;5051909;28;20020;-75
2022/06/29 14:32:25;;;;;;;8.23;6.40;;;;;;;;;;5039802;28;20516;-75
2022/06/29 14:34:52;;;;;;;9.25;6.97;;;;;;;;;;5032450;28;20045;-80
2022/06/29 14:37:20;;;;;;;7.53;6.88;;;;;;;;;;5056322;28;20040;-76
2022/06/29 14:39:47;;;;;;;9.02;7.03;;;;;;;;;;5053607;28;20040;-75
2022/06/29 14:42:14;;;;;;;10.48;6.93;;;;;;;;;;5045385;28;20028;-77
2022/06/29 14:44:40;;;;;;;8.68;7.43;;;;;;;;;;5045166;28;20385;-75
2022/06/29 14:47:07;;;;;;;8.55;6.47;;;;;;;;;;5054757;28;20499;-83
2022/06/29 14:49:33;;;;;;;7.50;6.70;;;;;;;;;;5055160;28;20485;-76
2022/06/29 14:51:58;;;;;;;11.93;6.93;;;;;;;;;;5038351;28;20124;-81
2022/06/29 14:54:24;;;;;;;7.55;6.63;;;;;;;;;;5060534;28;20017;-81
2022/06/29 14:56:49;;;;;;;7.07;6.28;;;;;;;;;;5055114;28;20488;-78
2022/06/29 14:59:16;;;;;;;8.07;6.88;;;;;;;;;;5058998;28;20075;-75
2022/06/29 15:01:41;;;;;;;7.25;6.40;;;;;;;;;;5035381;28;20025;-75
2022/06/29 15:04:07;;;;;;;7.70;6.53;;;;;;;;;;5044063;28;20431;-77
2022/06/29 15:06:35;;;;;;;8.35;6.63;;;;;;;;;;5060664;28;20058;-80
2022/06/29 15:09:01;;;;;;;8.48;6.57;;;;;;;;;;5036344;28;20020;-78
2022/06/29 15:11:28;;;;;;;8.02;6.10;;;;;;;;;;5054253;28;20017;-76